sensor_id;sensor_type;location;lat;lon;timestamp;pressure;altitude;pressure_sealevel;temperature;humidity
40596;BME280;26304;48.794;9.820;2023-04-25T00:01:55;95680.53;;;18.34;45.87
40596;BME280;26304;48.794;9.820;2023-04-25T00:07:40;95677.94;;;18.30;45.84
40596;BME280;26304;48.794;9.820;2023-04-25T00:13:23;95680.59;;;18.23;46.06
40596;BME280;26304;48.794;9.820;2023-04-25T00:19:06;95685.09;;;18.23;45.61
40596;BME280;26304;48.794;9.820;2023-04-25T00:24:50;95682.88;;;18.18;45.75
40596;BME280;26304;48.794;9.820;2023-04-25T00:30:34;95681.72;;;18.19;45.46
40596;BME280;26304;48.794;9.820;2023-04-25T00:36:16;95676.88;;;18.13;45.23
40596;BME280;26304;48.794;9.820;2023-04-25T00:42:00;95683.25;;;18.12;45.84
40596;BME280;26304;48.794;9.820;2023-04-25T00:47:44;95678.38;;;18.14;45.58
40596;BME280;26304;48.794;9.820;2023-04-25T00:53:27;95669.75;;;18.10;45.88
40596;BME280;26304;48.794;9.820;2023-04-25T00:59:11;95666.34;;;18.13;45.84
40596;BME280;26304;48.794;9.820;2023-04-25T01:04:54;95650.56;;;18.13;45.66
40596;BME280;26304;48.794;9.820;2023-04-25T01:10:37;95664.09;;;18.15;45.91
40596;BME280;26304;48.794;9.820;2023-04-25T01:16:20;95657.38;;;18.11;45.85
40596;BME280;26304;48.794;9.820;2023-04-25T01:22:06;95649.88;;;18.09;45.69
40596;BME280;26304;48.794;9.820;2023-04-25T01:27:51;95645.38;;;18.06;45.67
40596;BME280;26304;48.794;9.820;2023-04-25T01:33:34;95638.59;;;18.05;46.04
40596;BME280;26304;48.794;9.820;2023-04-25T01:39:18;95635.97;;;18.05;45.78
40596;BME280;26304;48.794;9.820;2023-04-25T01:45:03;95641.22;;;18.05;46.01
40596;BME280;26304;48.794;9.820;2023-04-25T01:50:46;95646.09;;;18.07;45.80
40596;BME280;26304;48.794;9.820;2023-04-25T01:56:31;95633.72;;;18.04;45.90
40596;BME280;26304;48.794;9.820;2023-04-25T02:02:14;95637.88;;;18.05;45.83
40596;BME280;26304;48.794;9.820;2023-04-25T02:07:56;95628.09;;;18.05;45.79
40596;BME280;26304;48.794;9.820;2023-04-25T02:13:40;95628.84;;;18.02;45.74
40596;BME280;26304;48.794;9.820;2023-04-25T02:19:23;95626.59;;;18.01;45.88
40596;BME280;26304;48.794;9.820;2023-04-25T02:25:06;95625.84;;;17.96;45.65
40596;BME280;26304;48.794;9.820;2023-04-25T02:30:50;95621.38;;;17.97;45.49
40596;BME280;26304;48.794;9.820;2023-04-25T02:36:32;95621.00;;;17.95;45.48
40596;BME280;26304;48.794;9.820;2023-04-25T02:42:16;95620.66;;;17.86;45.76
40596;BME280;26304;48.794;9.820;2023-04-25T02:48:00;95618.00;;;17.86;45.75
40596;BME280;26304;48.794;9.820;2023-04-25T02:53:42;95614.63;;;17.85;45.87
40596;BME280;26304;48.794;9.820;2023-04-25T02:59:25;95611.59;;;17.87;46.06
40596;BME280;26304;48.794;9.820;2023-04-25T03:05:08;95612.75;;;17.86;45.87
40596;BME280;26304;48.794;9.820;2023-04-25T03:10:51;95613.13;;;17.84;45.50
40596;BME280;26304;48.794;9.820;2023-04-25T03:16:36;95604.13;;;17.82;45.79
40596;BME280;26304;48.794;9.820;2023-04-25T03:22:20;95594.38;;;17.78;46.70
40596;BME280;26304;48.794;9.820;2023-04-25T03:28:02;95609.00;;;17.83;46.62
40596;BME280;26304;48.794;9.820;2023-04-25T03:33:45;95606.41;;;17.72;46.49
40596;BME280;26304;48.794;9.820;2023-04-25T03:39:28;95599.63;;;17.82;46.82
40596;BME280;26304;48.794;9.820;2023-04-25T03:45:11;95595.47;;;17.92;46.22
40596;BME280;26304;48.794;9.820;2023-04-25T03:50:54;95598.09;;;17.95;46.20
40596;BME280;26304;48.794;9.820;2023-04-25T03:56:37;95607.88;;;17.95;46.50
40596;BME280;26304;48.794;9.820;2023-04-25T04:02:20;95613.13;;;17.95;47.10
40596;BME280;26304;48.794;9.820;2023-04-25T04:08:02;95610.78;;;18.08;46.88
40596;BME280;26304;48.794;9.820;2023-04-25T04:13:46;95612.66;;;18.07;47.02
40596;BME280;26304;48.794;9.820;2023-04-25T04:19:29;95611.19;;;18.03;46.83
40596;BME280;26304;48.794;9.820;2023-04-25T04:25:11;95613.81;;;18.06;46.68
40596;BME280;26304;48.794;9.820;2023-04-25T04:30:55;95616.06;;;18.08;47.41
40596;BME280;26304;48.794;9.820;2023-04-25T04:36:37;95612.22;;;18.20;47.73
40596;BME280;26304;48.794;9.820;2023-04-25T04:42:21;95616.78;;;18.08;47.76
40596;BME280;26304;48.794;9.820;2023-04-25T04:48:06;95617.44;;;18.27;48.29
40596;BME280;26304;48.794;9.820;2023-04-25T04:53:49;95618.19;;;18.27;48.50
40596;BME280;26304;48.794;9.820;2023-04-25T04:59:32;95616.66;;;18.30;47.92
40596;BME280;26304;48.794;9.820;2023-04-25T05:05:17;95623.06;;;18.29;48.02
40596;BME280;26304;48.794;9.820;2023-04-25T05:10:59;95615.94;;;18.26;47.78
40596;BME280;26304;48.794;9.820;2023-04-25T05:16:42;95625.00;;;18.18;48.29
40596;BME280;26304;48.794;9.820;2023-04-25T05:22:26;95626.91;;;18.13;47.82
40596;BME280;26304;48.794;9.820;2023-04-25T05:28:08;95632.53;;;18.19;47.85
40596;BME280;26304;48.794;9.820;2023-04-25T05:33:51;95625.00;;;18.18;47.88
40596;BME280;26304;48.794;9.820;2023-04-25T05:39:34;95632.13;;;18.21;47.98
40596;BME280;26304;48.794;9.820;2023-04-25T05:45:17;95637.00;;;18.19;47.87
40596;BME280;26304;48.794;9.820;2023-04-25T05:50:59;95633.28;;;18.16;47.69
40596;BME280;26304;48.794;9.820;2023-04-25T05:56:43;95637.78;;;18.15;47.26
40596;BME280;26304;48.794;9.820;2023-04-25T06:02:25;95637.06;;;18.11;47.54
40596;BME280;26304;48.794;9.820;2023-04-25T06:08:08;95645.31;;;18.13;47.29
40596;BME280;26304;48.794;9.820;2023-04-25T06:13:52;95645.31;;;18.13;47.79
40596;BME280;26304;48.794;9.820;2023-04-25T06:19:35;95640.41;;;18.15;47.30
40596;BME280;26304;48.794;9.820;2023-04-25T06:25:18;95631.81;;;18.11;47.78
40596;BME280;26304;48.794;9.820;2023-04-25T06:31:02;95640.09;;;18.10;47.60
40596;BME280;26304;48.794;9.820;2023-04-25T06:36:44;95638.94;;;18.14;47.74
40596;BME280;26304;48.794;9.820;2023-04-25T06:42:27;95641.91;;;18.17;47.40
40596;BME280;26304;48.794;9.820;2023-04-25T06:48:10;95640.41;;;18.15;47.69
40596;BME280;26304;48.794;9.820;2023-04-25T06:53:53;95641.91;;;18.17;47.90
40596;BME280;26304;48.794;9.820;2023-04-25T06:59:35;95639.28;;;18.17;47.80
40596;BME280;26304;48.794;9.820;2023-04-25T07:05:24;95648.31;;;18.15;47.65
40596;BME280;26304;48.794;9.820;2023-04-25T07:11:06;95638.94;;;18.14;47.89
40596;BME280;26304;48.794;9.820;2023-04-25T07:16:49;95638.53;;;18.20;47.77
40596;BME280;26304;48.794;9.820;2023-04-25T07:22:33;95637.41;;;18.21;47.51
40596;BME280;26304;48.794;9.820;2023-04-25T07:28:15;95643.00;;;18.23;47.64
40596;BME280;26304;48.794;9.820;2023-04-25T07:33:57;95640.78;;;18.21;47.48
40596;BME280;26304;48.794;9.820;2023-04-25T07:39:41;95634.00;;;18.24;47.59
40596;BME280;26304;48.794;9.820;2023-04-25T07:45:24;95648.66;;;18.21;47.91
40596;BME280;26304;48.794;9.820;2023-04-25T07:51:06;95654.66;;;18.22;47.53
40596;BME280;26304;48.794;9.820;2023-04-25T07:56:50;95664.09;;;18.19;47.46
40596;BME280;26304;48.794;9.820;2023-04-25T08:02:32;95663.31;;;18.19;48.00
40596;BME280;26304;48.794;9.820;2023-04-25T08:08:14;95667.03;;;18.28;47.92
40596;BME280;26304;48.794;9.820;2023-04-25T08:13:58;95682.78;;;18.36;48.10
40596;BME280;26304;48.794;9.820;2023-04-25T08:19:41;95688.44;;;18.34;47.98
40596;BME280;26304;48.794;9.820;2023-04-25T08:25:23;95687.38;;;18.21;48.15
40596;BME280;26304;48.794;9.820;2023-04-25T08:31:07;95695.19;;;18.35;47.79
40596;BME280;26304;48.794;9.820;2023-04-25T08:36:49;95701.19;;;18.39;48.28
40596;BME280;26304;48.794;9.820;2023-04-25T08:42:32;95707.59;;;18.38;48.15
40596;BME280;26304;48.794;9.820;2023-04-25T08:48:16;95720.72;;;18.42;47.96
40596;BME280;26304;48.794;9.820;2023-04-25T08:54:08;95731.22;;;18.45;48.27
40596;BME280;26304;48.794;9.820;2023-04-25T08:59:51;95727.81;;;18.48;47.88
40596;BME280;26304;48.794;9.820;2023-04-25T09:05:36;95739.47;;;18.51;48.39
40596;BME280;26304;48.794;9.820;2023-04-25T09:11:18;95751.88;;;18.50;48.54
40596;BME280;26304;48.794;9.820;2023-04-25T09:17:02;95757.09;;;18.58;48.07
40596;BME280;26304;48.794;9.820;2023-04-25T09:22:46;95765.00;;;18.58;48.37
40596;BME280;26304;48.794;9.820;2023-04-25T09:28:29;95769.13;;;18.59;48.05
40596;BME280;26304;48.794;9.820;2023-04-25T09:34:11;95775.13;;;18.63;48.58
40596;BME280;26304;48.794;9.820;2023-04-25T09:39:59;95781.91;;;18.60;48.71
40596;BME280;26304;48.794;9.820;2023-04-25T09:45:44;95779.66;;;18.62;48.64
40596;BME280;26304;48.794;9.820;2023-04-25T09:51:28;95783.72;;;18.74;48.63
40596;BME280;26304;48.794;9.820;2023-04-25T09:57:13;95793.88;;;18.72;48.61
40596;BME280;26304;48.794;9.820;2023-04-25T10:02:57;95791.94;;;18.83;48.28
40596;BME280;26304;48.794;9.820;2023-04-25T10:08:43;95794.69;;;18.65;48.77
40596;BME280;26304;48.794;9.820;2023-04-25T10:14:29;95790.19;;;18.62;48.78
40596;BME280;26304;48.794;9.820;2023-04-25T10:20:12;95794.63;;;18.73;49.03
40596;BME280;26304;48.794;9.820;2023-04-25T10:25:55;95798.03;;;18.69;48.94
40596;BME280;26304;48.794;9.820;2023-04-25T10:31:46;95788.63;;;18.65;48.90
40596;BME280;26304;48.794;9.820;2023-04-25T10:37:29;95797.72;;;18.57;48.63
40596;BME280;26304;48.794;9.820;2023-04-25T10:43:39;95805.22;;;18.58;48.66
40596;BME280;26304;48.794;9.820;2023-04-25T10:49:31;95807.53;;;18.45;48.80
40596;BME280;26304;48.794;9.820;2023-04-25T10:55:13;95814.31;;;18.39;48.74
40596;BME280;26304;48.794;9.820;2023-04-25T11:00:56;95821.13;;;18.37;48.85
40596;BME280;26304;48.794;9.820;2023-04-25T11:06:50;95836.16;;;18.32;49.04
40596;BME280;26304;48.794;9.820;2023-04-25T11:12:36;95838.44;;;18.30;48.93
40596;BME280;26304;48.794;9.820;2023-04-25T11:18:19;95839.16;;;18.38;48.77
40596;BME280;26304;48.794;9.820;2023-04-25T11:24:04;95842.13;;;18.47;49.08
40596;BME280;26304;48.794;9.820;2023-04-25T11:29:46;95849.97;;;18.62;49.35
40596;BME280;26304;48.794;9.820;2023-04-25T11:35:29;95854.81;;;18.74;49.60
40596;BME280;26304;48.794;9.820;2023-04-25T11:41:13;95875.88;;;18.74;49.65
40596;BME280;26304;48.794;9.820;2023-04-25T11:46:55;95880.78;;;18.68;49.11
40596;BME280;26304;48.794;9.820;2023-04-25T11:52:38;95883.41;;;18.72;49.19
40596;BME280;26304;48.794;9.820;2023-04-25T11:58:23;95896.19;;;18.74;48.76
40596;BME280;26304;48.794;9.820;2023-04-25T12:04:12;95903.00;;;18.64;49.79
40596;BME280;26304;48.794;9.820;2023-04-25T12:09:55;95906.34;;;18.68;50.03
40596;BME280;26304;48.794;9.820;2023-04-25T12:15:40;95910.84;;;18.75;49.89
40596;BME280;26304;48.794;9.820;2023-04-25T12:21:22;95911.97;;;18.77;49.55
40596;BME280;26304;48.794;9.820;2023-04-25T12:27:06;95911.94;;;18.81;49.86
40596;BME280;26304;48.794;9.820;2023-04-25T12:32:50;95921.00;;;18.76;50.12
40596;BME280;26304;48.794;9.820;2023-04-25T12:38:36;95920.22;;;18.79;50.31
40596;BME280;26304;48.794;9.820;2023-04-25T12:44:18;95928.47;;;18.92;50.44
40596;BME280;26304;48.794;9.820;2023-04-25T12:50:02;95941.28;;;18.94;49.97
40596;BME280;26304;48.794;9.820;2023-04-25T12:55:46;95946.53;;;18.94;50.16
40596;BME280;26304;48.794;9.820;2023-04-25T13:01:28;95941.59;;;19.10;49.86
40596;BME280;26304;48.794;9.820;2023-04-25T13:07:12;95960.75;;;19.14;49.64
40596;BME280;26304;48.794;9.820;2023-04-25T13:12:55;95958.53;;;19.09;50.34
40596;BME280;26304;48.794;9.820;2023-04-25T13:18:37;95963.47;;;19.03;49.97
40596;BME280;26304;48.794;9.820;2023-04-25T13:24:21;95964.91;;;19.15;49.48
40596;BME280;26304;48.794;9.820;2023-04-25T13:30:04;95965.66;;;19.12;50.25
40596;BME280;26304;48.794;9.820;2023-04-25T13:35:49;95964.22;;;18.97;50.56
40596;BME280;26304;48.794;9.820;2023-04-25T13:41:36;95963.84;;;18.98;50.80
40596;BME280;26304;48.794;9.820;2023-04-25T13:47:18;95966.47;;;18.98;50.92
40596;BME280;26304;48.794;9.820;2023-04-25T13:53:00;95969.44;;;19.08;50.33
40596;BME280;26304;48.794;9.820;2023-04-25T13:58:44;95973.63;;;18.98;51.10
40596;BME280;26304;48.794;9.820;2023-04-25T14:04:27;95980.34;;;19.17;50.54
40596;BME280;26304;48.794;9.820;2023-04-25T14:10:10;95982.63;;;19.08;50.19
40596;BME280;26304;48.794;9.820;2023-04-25T14:15:53;95983.41;;;18.97;49.91
40596;BME280;26304;48.794;9.820;2023-04-25T14:21:36;95990.16;;;18.98;50.03
40596;BME280;26304;48.794;9.820;2023-04-25T14:27:19;95983.09;;;18.84;49.96
40596;BME280;26304;48.794;9.820;2023-04-25T14:33:02;95984.94;;;18.84;50.28
40596;BME280;26304;48.794;9.820;2023-04-25T14:38:45;95992.84;;;18.80;49.79
40596;BME280;26304;48.794;9.820;2023-04-25T14:44:27;95990.22;;;18.80;50.09
40596;BME280;26304;48.794;9.820;2023-04-25T14:50:11;95994.72;;;18.73;50.33
40596;BME280;26304;48.794;9.820;2023-04-25T14:55:54;95994.38;;;18.70;50.04
40596;BME280;26304;48.794;9.820;2023-04-25T15:01:36;96011.31;;;18.66;49.87
40596;BME280;26304;48.794;9.820;2023-04-25T15:07:20;96023.34;;;18.70;49.61
40596;BME280;26304;48.794;9.820;2023-04-25T15:13:03;96026.31;;;18.83;50.16
40596;BME280;26304;48.794;9.820;2023-04-25T15:18:45;96018.81;;;18.85;50.42
40596;BME280;26304;48.794;9.820;2023-04-25T15:24:30;96019.16;;;18.95;50.03
40596;BME280;26304;48.794;9.820;2023-04-25T15:30:13;96021.41;;;19.00;49.84
40596;BME280;26304;48.794;9.820;2023-04-25T15:35:56;96020.31;;;18.90;50.71
40596;BME280;26304;48.794;9.820;2023-04-25T15:41:40;96027.84;;;18.88;50.09
40596;BME280;26304;48.794;9.820;2023-04-25T15:47:24;96019.94;;;18.88;50.62
40596;BME280;26304;48.794;9.820;2023-04-25T15:53:06;96019.56;;;18.86;50.61
40596;BME280;26304;48.794;9.820;2023-04-25T15:58:50;96034.22;;;18.87;50.20
40596;BME280;26304;48.794;9.820;2023-04-25T16:04:33;96039.13;;;18.88;50.79
40596;BME280;26304;48.794;9.820;2023-04-25T16:10:17;96032.72;;;18.90;50.25
40596;BME280;26304;48.794;9.820;2023-04-25T16:16:03;96038.38;;;18.92;50.68
40596;BME280;26304;48.794;9.820;2023-04-25T16:21:45;96035.72;;;18.99;49.68
40596;BME280;26304;48.794;9.820;2023-04-25T16:27:30;96025.50;;;19.08;49.88
40596;BME280;26304;48.794;9.820;2023-04-25T16:33:15;96028.53;;;19.03;50.49
40596;BME280;26304;48.794;9.820;2023-04-25T16:38:58;96037.56;;;19.09;50.37
40596;BME280;26304;48.794;9.820;2023-04-25T16:44:41;96041.69;;;19.06;50.68
40596;BME280;26304;48.794;9.820;2023-04-25T16:50:25;96039.84;;;19.07;50.44
40596;BME280;26304;48.794;9.820;2023-04-25T16:56:07;96044.31;;;19.17;50.60
40596;BME280;26304;48.794;9.820;2023-04-25T17:01:50;96043.56;;;19.17;50.48
40596;BME280;26304;48.794;9.820;2023-04-25T17:07:34;96049.50;;;19.42;50.95
40596;BME280;26304;48.794;9.820;2023-04-25T17:13:16;96049.53;;;19.39;51.89
40596;BME280;26304;48.794;9.820;2023-04-25T17:18:59;96054.03;;;19.42;53.15
40596;BME280;26304;48.794;9.820;2023-04-25T17:24:43;96064.19;;;19.40;53.66
40596;BME280;26304;48.794;9.820;2023-04-25T17:30:26;96072.47;;;19.42;53.57
40596;BME280;26304;48.794;9.820;2023-04-25T17:36:08;96067.63;;;19.22;53.56
40596;BME280;26304;48.794;9.820;2023-04-25T17:41:52;96076.72;;;19.07;52.84
40596;BME280;26304;48.794;9.820;2023-04-25T17:47:34;96072.25;;;18.90;51.98
40596;BME280;26304;48.794;9.820;2023-04-25T17:53:17;96079.75;;;18.73;51.83
40596;BME280;26304;48.794;9.820;2023-04-25T17:59:00;96080.50;;;18.95;51.26
40596;BME280;26304;48.794;9.820;2023-04-25T18:04:43;96084.25;;;19.09;51.20
40596;BME280;26304;48.794;9.820;2023-04-25T18:10:25;96091.03;;;19.02;51.91
40596;BME280;26304;48.794;9.820;2023-04-25T18:16:09;96103.06;;;19.00;52.06
40596;BME280;26304;48.794;9.820;2023-04-25T18:21:53;96107.56;;;19.03;51.75
40596;BME280;26304;48.794;9.820;2023-04-25T18:27:36;96109.84;;;19.01;51.49
40596;BME280;26304;48.794;9.820;2023-04-25T18:33:20;96123.41;;;18.96;52.20
40596;BME280;26304;48.794;9.820;2023-04-25T18:39:03;96150.50;;;18.96;53.79
40596;BME280;26304;48.794;9.820;2023-04-25T18:44:46;96152.00;;;18.97;53.64
40596;BME280;26304;48.794;9.820;2023-04-25T18:50:30;96166.28;;;18.96;52.84
40596;BME280;26304;48.794;9.820;2023-04-25T18:56:13;96173.09;;;18.97;52.48
40596;BME280;26304;48.794;9.820;2023-04-25T19:01:55;96172.31;;;18.97;51.58
40596;BME280;26304;48.794;9.820;2023-04-25T19:07:39;96182.50;;;19.02;50.65
40596;BME280;26304;48.794;9.820;2023-04-25T19:13:22;96201.31;;;18.86;50.53
40596;BME280;26304;48.794;9.820;2023-04-25T19:19:05;96192.13;;;18.26;48.19
40596;BME280;26304;48.794;9.820;2023-04-25T19:24:50;96196.22;;;18.09;47.18
40596;BME280;26304;48.794;9.820;2023-04-25T19:30:33;96207.88;;;18.11;47.27
40596;BME280;26304;48.794;9.820;2023-04-25T19:36:15;96211.31;;;18.30;47.70
40596;BME280;26304;48.794;9.820;2023-04-25T19:41:59;96212.09;;;18.34;48.39
40596;BME280;26304;48.794;9.820;2023-04-25T19:47:43;96213.97;;;18.33;48.81
40596;BME280;26304;48.794;9.820;2023-04-25T19:53:25;96216.19;;;18.31;48.87
40596;BME280;26304;48.794;9.820;2023-04-25T19:59:09;96227.88;;;18.30;48.58
40596;BME280;26304;48.794;9.820;2023-04-25T20:04:51;96221.47;;;18.31;48.71
40596;BME280;26304;48.794;9.820;2023-04-25T20:10:34;96220.72;;;18.27;49.09
40596;BME280;26304;48.794;9.820;2023-04-25T20:16:18;96224.09;;;18.28;49.27
40596;BME280;26304;48.794;9.820;2023-04-25T20:22:01;96219.56;;;18.25;49.37
40596;BME280;26304;48.794;9.820;2023-04-25T20:27:44;96215.44;;;18.24;49.09
40596;BME280;26304;48.794;9.820;2023-04-25T20:33:28;96218.03;;;18.20;49.37
40596;BME280;26304;48.794;9.820;2023-04-25T20:39:10;96216.56;;;18.19;49.48
40596;BME280;26304;48.794;9.820;2023-04-25T20:44:52;96225.56;;;18.18;49.54
40596;BME280;26304;48.794;9.820;2023-04-25T20:50:36;96221.78;;;18.15;49.71
40596;BME280;26304;48.794;9.820;2023-04-25T20:56:19;96227.81;;;18.16;49.15
40596;BME280;26304;48.794;9.820;2023-04-25T21:02:01;96227.78;;;18.12;49.70
40596;BME280;26304;48.794;9.820;2023-04-25T21:07:46;96233.44;;;18.11;49.54
40596;BME280;26304;48.794;9.820;2023-04-25T21:13:28;96239.09;;;18.17;48.82
40596;BME280;26304;48.794;9.820;2023-04-25T21:19:11;96240.56;;;18.10;49.38
40596;BME280;26304;48.794;9.820;2023-04-25T21:24:54;96257.47;;;18.09;49.66
40596;BME280;26304;48.794;9.820;2023-04-25T21:30:37;96258.22;;;18.06;49.63
40596;BME280;26304;48.794;9.820;2023-04-25T21:36:19;96265.31;;;18.02;49.78
40596;BME280;26304;48.794;9.820;2023-04-25T21:42:03;96260.84;;;18.06;49.54
40596;BME280;26304;48.794;9.820;2023-04-25T21:47:48;96261.22;;;18.08;49.42
40596;BME280;26304;48.794;9.820;2023-04-25T21:53:31;96258.59;;;18.08;49.63
40596;BME280;26304;48.794;9.820;2023-04-25T21:59:15;96261.59;;;18.03;49.62
40596;BME280;26304;48.794;9.820;2023-04-25T22:04:57;96266.84;;;18.03;49.65
40596;BME280;26304;48.794;9.820;2023-04-25T22:10:40;96261.59;;;18.03;49.46
40596;BME280;26304;48.794;9.820;2023-04-25T22:16:24;96270.59;;;18.02;49.63
40596;BME280;26304;48.794;9.820;2023-04-25T22:22:06;96272.06;;;18.00;50.09
40596;BME280;26304;48.794;9.820;2023-04-25T22:27:51;96272.06;;;18.00;50.04
40596;BME280;26304;48.794;9.820;2023-04-25T22:33:36;96266.06;;;17.99;49.61
40596;BME280;26304;48.794;9.820;2023-04-25T22:39:19;96274.31;;;17.97;49.60
40596;BME280;26304;48.794;9.820;2023-04-25T22:45:04;96283.72;;;17.95;50.03
40596;BME280;26304;48.794;9.820;2023-04-25T22:50:49;96289.31;;;17.90;50.11
40596;BME280;26304;48.794;9.820;2023-04-25T22:56:32;96294.59;;;17.93;49.67
40596;BME280;26304;48.794;9.820;2023-04-25T23:02:15;96303.16;;;17.87;50.17
40596;BME280;26304;48.794;9.820;2023-04-25T23:07:59;96298.63;;;17.84;49.88
40596;BME280;26304;48.794;9.820;2023-04-25T23:13:42;96296.75;;;17.84;49.67
40596;BME280;26304;48.794;9.820;2023-04-25T23:19:24;96300.88;;;17.82;49.82
40596;BME280;26304;48.794;9.820;2023-04-25T23:25:08;96300.13;;;17.81;50.21
40596;BME280;26304;48.794;9.820;2023-04-25T23:30:51;96295.63;;;17.82;50.06
40596;BME280;26304;48.794;9.820;2023-04-25T23:36:34;96305.00;;;17.79;49.88
40596;BME280;26304;48.794;9.820;2023-04-25T23:42:18;96300.50;;;17.79;50.06
40596;BME280;26304;48.794;9.820;2023-04-25T23:48:01;96303.47;;;17.74;49.98
40596;BME280;26304;48.794;9.820;2023-04-25T23:53:43;96298.97;;;17.78;50.21
40596;BME280;26304;48.794;9.820;2023-04-25T23:59:27;96303.47;;;17.74;50.38
